sensor_id;sensor_type;location;lat;lon;timestamp;pressure;altitude;pressure_sealevel;temperature;humidity
16355;BME280;8287;51.644;8.494;2023-06-04T00:02:02;100882.72;;;14.07;59.32
16355;BME280;8287;51.644;8.494;2023-06-04T00:04:29;100887.28;;;14.06;58.89
16355;BME280;8287;51.644;8.494;2023-06-04T00:06:56;100886.66;;;14.01;58.98
16355;BME280;8287;51.644;8.494;2023-06-04T00:09:22;100883.97;;;13.92;59.89
16355;BME280;8287;51.644;8.494;2023-06-04T00:11:49;100888.50;;;13.83;59.17
16355;BME280;8287;51.644;8.494;2023-06-04T00:14:18;100889.13;;;13.80;59.36
16355;BME280;8287;51.644;8.494;2023-06-04T00:16:44;100879.59;;;13.79;60.21
16355;BME280;8287;51.644;8.494;2023-06-04T00:19:11;100878.00;;;13.70;58.85
16355;BME280;8287;51.644;8.494;2023-06-04T00:21:37;100885.47;;;13.51;58.60
16355;BME280;8287;51.644;8.494;2023-06-04T00:24:04;100882.00;;;13.50;58.71
16355;BME280;8287;51.644;8.494;2023-06-04T00:26:31;100881.84;;;13.47;58.70
16355;BME280;8287;51.644;8.494;2023-06-04T00:28:57;100889.53;;;13.48;58.14
16355;BME280;8287;51.644;8.494;2023-06-04T00:31:25;100883.09;;;13.49;58.09
16355;BME280;8287;51.644;8.494;2023-06-04T00:33:52;100886.69;;;13.45;59.18
16355;BME280;8287;51.644;8.494;2023-06-04T00:36:18;100884.34;;;13.43;59.93
16355;BME280;8287;51.644;8.494;2023-06-04T00:38:46;100876.50;;;13.38;59.88
16355;BME280;8287;51.644;8.494;2023-06-04T00:41:12;100882.44;;;13.35;60.91
16355;BME280;8287;51.644;8.494;2023-06-04T00:43:39;100885.06;;;13.27;60.36
16355;BME280;8287;51.644;8.494;2023-06-04T00:46:06;100878.63;;;13.19;61.43
16355;BME280;8287;51.644;8.494;2023-06-04T00:48:34;100878.88;;;13.10;61.70
16355;BME280;8287;51.644;8.494;2023-06-04T00:51:02;100880.47;;;13.11;59.75
16355;BME280;8287;51.644;8.494;2023-06-04T00:53:29;100884.03;;;13.06;60.11
16355;BME280;8287;51.644;8.494;2023-06-04T00:55:56;100882.13;;;12.98;59.63
16355;BME280;8287;51.644;8.494;2023-06-04T00:58:23;100886.50;;;12.94;61.23
16355;BME280;8287;51.644;8.494;2023-06-04T01:00:51;100877.47;;;12.82;60.66
16355;BME280;8287;51.644;8.494;2023-06-04T01:03:23;100876.34;;;12.74;59.96
16355;BME280;8287;51.644;8.494;2023-06-04T01:06:00;100886.31;;;12.69;59.84
16355;BME280;8287;51.644;8.494;2023-06-04T01:08:27;100885.66;;;12.63;61.01
16355;BME280;8287;51.644;8.494;2023-06-04T01:10:56;100899.75;;;12.20;61.91
16355;BME280;8287;51.644;8.494;2023-06-04T01:13:24;100892.91;;;12.27;61.80
16355;BME280;8287;51.644;8.494;2023-06-04T01:15:51;100887.41;;;12.24;62.41
16355;BME280;8287;51.644;8.494;2023-06-04T01:18:21;100889.88;;;12.20;62.96
16355;BME280;8287;51.644;8.494;2023-06-04T01:20:55;100887.53;;;12.19;63.66
16355;BME280;8287;51.644;8.494;2023-06-04T01:23:30;100887.84;;;12.17;63.75
16355;BME280;8287;51.644;8.494;2023-06-04T01:26:00;100879.34;;;12.15;63.62
16355;BME280;8287;51.644;8.494;2023-06-04T01:28:28;100881.25;;;12.15;63.57
16355;BME280;8287;51.644;8.494;2023-06-04T01:30:56;100876.66;;;12.07;63.87
16355;BME280;8287;51.644;8.494;2023-06-04T01:33:25;100875.00;;;11.97;63.90
16355;BME280;8287;51.644;8.494;2023-06-04T01:35:51;100882.06;;;12.02;63.74
16355;BME280;8287;51.644;8.494;2023-06-04T01:38:19;100881.72;;;11.95;64.18
16355;BME280;8287;51.644;8.494;2023-06-04T01:40:46;100879.63;;;11.92;64.45
16355;BME280;8287;51.644;8.494;2023-06-04T01:43:13;100881.34;;;11.88;64.27
16355;BME280;8287;51.644;8.494;2023-06-04T01:45:40;100886.69;;;11.96;64.34
16355;BME280;8287;51.644;8.494;2023-06-04T01:48:06;100880.25;;;11.89;63.74
16355;BME280;8287;51.644;8.494;2023-06-04T01:50:33;100887.22;;;11.85;64.48
16355;BME280;8287;51.644;8.494;2023-06-04T01:52:59;100888.63;;;11.82;64.48
16355;BME280;8287;51.644;8.494;2023-06-04T01:55:27;100891.16;;;11.87;64.72
16355;BME280;8287;51.644;8.494;2023-06-04T01:57:59;100891.09;;;11.79;64.53
16355;BME280;8287;51.644;8.494;2023-06-04T02:00:26;100880.78;;;11.64;64.83
16355;BME280;8287;51.644;8.494;2023-06-04T02:02:52;100884.13;;;11.69;64.45
16355;BME280;8287;51.644;8.494;2023-06-04T02:05:21;100888.03;;;11.72;64.98
16355;BME280;8287;51.644;8.494;2023-06-04T02:07:48;100881.75;;;11.68;64.46
16355;BME280;8287;51.644;8.494;2023-06-04T02:10:16;100887.06;;;11.68;64.45
16355;BME280;8287;51.644;8.494;2023-06-04T02:12:55;100888.47;;;11.65;63.21
16355;BME280;8287;51.644;8.494;2023-06-04T02:15:22;100886.19;;;11.59;63.26
16355;BME280;8287;51.644;8.494;2023-06-04T02:17:49;100892.56;;;11.58;63.28
16355;BME280;8287;51.644;8.494;2023-06-04T02:20:17;100885.41;;;11.58;63.47
16355;BME280;8287;51.644;8.494;2023-06-04T02:22:43;100892.66;;;11.53;63.01
16355;BME280;8287;51.644;8.494;2023-06-04T02:25:10;100898.47;;;11.55;63.29
16355;BME280;8287;51.644;8.494;2023-06-04T02:27:37;100883.78;;;11.44;63.03
16355;BME280;8287;51.644;8.494;2023-06-04T02:30:06;100889.09;;;11.30;62.87
16355;BME280;8287;51.644;8.494;2023-06-04T02:32:33;100892.97;;;11.38;61.89
16355;BME280;8287;51.644;8.494;2023-06-04T02:35:01;100891.38;;;11.37;63.83
16355;BME280;8287;51.644;8.494;2023-06-04T02:37:28;100884.00;;;11.34;64.23
16355;BME280;8287;51.644;8.494;2023-06-04T02:39:54;100886.38;;;11.35;64.33
16355;BME280;8287;51.644;8.494;2023-06-04T02:42:21;100886.38;;;11.35;64.13
16355;BME280;8287;51.644;8.494;2023-06-04T02:44:47;100890.41;;;11.33;64.80
16355;BME280;8287;51.644;8.494;2023-06-04T02:47:15;100892.56;;;11.31;64.58
16355;BME280;8287;51.644;8.494;2023-06-04T02:49:44;100891.38;;;11.23;64.49
16355;BME280;8287;51.644;8.494;2023-06-04T02:52:10;100891.69;;;11.22;65.04
16355;BME280;8287;51.644;8.494;2023-06-04T02:54:37;100889.72;;;11.27;65.68
16355;BME280;8287;51.644;8.494;2023-06-04T02:57:05;100880.47;;;11.25;65.58
16355;BME280;8287;51.644;8.494;2023-06-04T02:59:31;100886.56;;;11.25;66.17
16355;BME280;8287;51.644;8.494;2023-06-04T03:01:58;100883.13;;;11.25;65.58
16355;BME280;8287;51.644;8.494;2023-06-04T03:04:26;100883.81;;;11.30;65.67
16355;BME280;8287;51.644;8.494;2023-06-04T03:07:00;100880.38;;;11.30;65.71
16355;BME280;8287;51.644;8.494;2023-06-04T03:09:28;100886.84;;;11.24;66.11
16355;BME280;8287;51.644;8.494;2023-06-04T03:11:56;100882.22;;;11.02;66.34
16355;BME280;8287;51.644;8.494;2023-06-04T03:14:23;100886.16;;;11.05;67.35
16355;BME280;8287;51.644;8.494;2023-06-04T03:16:58;100886.72;;;11.02;67.56
16355;BME280;8287;51.644;8.494;2023-06-04T03:19:28;100894.69;;;11.02;67.92
16355;BME280;8287;51.644;8.494;2023-06-04T03:21:54;100895.97;;;11.04;68.17
16355;BME280;8287;51.644;8.494;2023-06-04T03:24:22;100890.38;;;11.06;68.06
16355;BME280;8287;51.644;8.494;2023-06-04T03:26:48;100891.19;;;11.06;67.55
16355;BME280;8287;51.644;8.494;2023-06-04T03:29:15;100895.94;;;10.91;67.65
16355;BME280;8287;51.644;8.494;2023-06-04T03:31:44;100899.38;;;10.78;67.81
16355;BME280;8287;51.644;8.494;2023-06-04T03:34:11;100895.94;;;10.91;68.43
16355;BME280;8287;51.644;8.494;2023-06-04T03:36:39;100890.75;;;10.86;66.20
16355;BME280;8287;51.644;8.494;2023-06-04T03:39:05;100899.63;;;10.63;67.70
16355;BME280;8287;51.644;8.494;2023-06-04T03:41:32;100893.72;;;10.66;68.33
16355;BME280;8287;51.644;8.494;2023-06-04T03:43:59;100896.69;;;10.64;68.47
16355;BME280;8287;51.644;8.494;2023-06-04T03:46:25;100894.81;;;10.65;68.47
16355;BME280;8287;51.644;8.494;2023-06-04T03:48:54;100903.56;;;10.65;68.34
16355;BME280;8287;51.644;8.494;2023-06-04T03:51:21;100898.41;;;10.55;68.36
16355;BME280;8287;51.644;8.494;2023-06-04T03:53:49;100902.75;;;10.65;68.59
16355;BME280;8287;51.644;8.494;2023-06-04T03:56:16;100903.94;;;10.72;69.07
16355;BME280;8287;51.644;8.494;2023-06-04T03:58:42;100900.25;;;10.73;68.71
16355;BME280;8287;51.644;8.494;2023-06-04T04:01:09;100905.72;;;10.77;69.17
16355;BME280;8287;51.644;8.494;2023-06-04T04:03:36;100895.72;;;10.74;69.74
16355;BME280;8287;51.644;8.494;2023-06-04T04:06:03;100896.09;;;10.67;68.49
16355;BME280;8287;51.644;8.494;2023-06-04T04:08:30;100895.88;;;10.64;68.60
16355;BME280;8287;51.644;8.494;2023-06-04T04:10:58;100901.59;;;10.71;70.57
16355;BME280;8287;51.644;8.494;2023-06-04T04:13:24;100894.31;;;10.63;70.69
16355;BME280;8287;51.644;8.494;2023-06-04T04:15:51;100908.34;;;10.63;70.65
16355;BME280;8287;51.644;8.494;2023-06-04T04:18:18;100900.78;;;10.57;72.03
16355;BME280;8287;51.644;8.494;2023-06-04T04:20:45;100906.06;;;10.57;70.36
16355;BME280;8287;51.644;8.494;2023-06-04T04:23:12;100898.59;;;10.59;70.34
16355;BME280;8287;51.644;8.494;2023-06-04T04:25:39;100900.00;;;10.56;70.69
16355;BME280;8287;51.644;8.494;2023-06-04T04:28:08;100903.84;;;10.64;70.35
16355;BME280;8287;51.644;8.494;2023-06-04T04:30:34;100907.19;;;10.69;69.09
16355;BME280;8287;51.644;8.494;2023-06-04T04:33:01;100906.31;;;10.74;68.40
16355;BME280;8287;51.644;8.494;2023-06-04T04:35:30;100910.56;;;10.88;67.52
16355;BME280;8287;51.644;8.494;2023-06-04T04:37:58;100909.50;;;10.89;68.42
16355;BME280;8287;51.644;8.494;2023-06-04T04:40:24;100912.88;;;10.95;69.28
16355;BME280;8287;51.644;8.494;2023-06-04T04:42:51;100910.69;;;10.97;68.52
16355;BME280;8287;51.644;8.494;2023-06-04T04:45:19;100913.44;;;10.92;69.91
16355;BME280;8287;51.644;8.494;2023-06-04T04:47:46;100910.56;;;10.88;70.89
16355;BME280;8287;51.644;8.494;2023-06-04T04:50:12;100909.63;;;10.98;70.56
16355;BME280;8287;51.644;8.494;2023-06-04T04:52:39;100902.63;;;11.02;69.15
16355;BME280;8287;51.644;8.494;2023-06-04T04:55:07;100908.56;;;11.12;68.56
16355;BME280;8287;51.644;8.494;2023-06-04T04:57:34;100913.66;;;11.09;70.97
16355;BME280;8287;51.644;8.494;2023-06-04T05:00:00;100914.94;;;11.11;70.65
16355;BME280;8287;51.644;8.494;2023-06-04T05:02:30;100908.34;;;11.09;71.44
16355;BME280;8287;51.644;8.494;2023-06-04T05:04:56;100899.22;;;11.15;69.65
16355;BME280;8287;51.644;8.494;2023-06-04T05:07:23;100900.31;;;11.27;68.38
16355;BME280;8287;51.644;8.494;2023-06-04T05:09:50;100902.28;;;11.35;68.23
16355;BME280;8287;51.644;8.494;2023-06-04T05:12:16;100912.91;;;11.49;68.11
16355;BME280;8287;51.644;8.494;2023-06-04T05:14:43;100905.56;;;11.59;69.23
16355;BME280;8287;51.644;8.494;2023-06-04T05:17:11;100905.06;;;11.71;70.43
16355;BME280;8287;51.644;8.494;2023-06-04T05:19:39;100903.09;;;11.76;70.24
16355;BME280;8287;51.644;8.494;2023-06-04T05:22:07;100912.69;;;11.86;69.87
16355;BME280;8287;51.644;8.494;2023-06-04T05:24:34;100913.59;;;11.95;68.93
16355;BME280;8287;51.644;8.494;2023-06-04T05:27:00;100912.88;;;12.03;69.40
16355;BME280;8287;51.644;8.494;2023-06-04T05:29:28;100916.69;;;12.10;69.64
16355;BME280;8287;51.644;8.494;2023-06-04T05:31:55;100918.19;;;12.03;71.58
16355;BME280;8287;51.644;8.494;2023-06-04T05:34:22;100922.06;;;12.19;70.02
16355;BME280;8287;51.644;8.494;2023-06-04T05:36:50;100918.59;;;12.32;69.30
16355;BME280;8287;51.644;8.494;2023-06-04T05:39:17;100920.56;;;12.48;69.53
16355;BME280;8287;51.644;8.494;2023-06-04T05:41:44;100914.97;;;12.50;70.58
16355;BME280;8287;51.644;8.494;2023-06-04T05:44:11;100909.09;;;12.61;69.81
16355;BME280;8287;51.644;8.494;2023-06-04T05:46:38;100909.94;;;12.70;69.57
16355;BME280;8287;51.644;8.494;2023-06-04T05:49:05;100912.16;;;12.77;71.37
16355;BME280;8287;51.644;8.494;2023-06-04T05:51:32;100923.44;;;12.96;69.50
16355;BME280;8287;51.644;8.494;2023-06-04T05:54:00;100912.22;;;13.07;69.01
16355;BME280;8287;51.644;8.494;2023-06-04T05:56:28;100916.50;;;13.17;66.57
16355;BME280;8287;51.644;8.494;2023-06-04T05:58:54;100922.50;;;13.30;66.96
16355;BME280;8287;51.644;8.494;2023-06-04T06:01:21;100914.88;;;13.46;66.38
16355;BME280;8287;51.644;8.494;2023-06-04T06:03:48;100922.28;;;13.57;66.02
16355;BME280;8287;51.644;8.494;2023-06-04T06:06:15;100926.22;;;13.68;65.75
16355;BME280;8287;51.644;8.494;2023-06-04T06:08:43;100930.66;;;13.81;64.40
16355;BME280;8287;51.644;8.494;2023-06-04T06:11:12;100933.66;;;13.88;64.10
16355;BME280;8287;51.644;8.494;2023-06-04T06:13:38;100927.22;;;13.98;64.63
16355;BME280;8287;51.644;8.494;2023-06-04T06:16:05;100936.34;;;14.14;64.47
16355;BME280;8287;51.644;8.494;2023-06-04T06:18:32;100926.19;;;14.24;64.20
16355;BME280;8287;51.644;8.494;2023-06-04T06:20:59;100937.50;;;14.38;63.67
16355;BME280;8287;51.644;8.494;2023-06-04T06:23:25;100933.56;;;14.53;63.06
16355;BME280;8287;51.644;8.494;2023-06-04T06:25:52;100935.59;;;14.64;62.01
16355;BME280;8287;51.644;8.494;2023-06-04T06:28:19;100935.72;;;14.76;60.36
16355;BME280;8287;51.644;8.494;2023-06-04T06:30:46;100923.59;;;14.87;58.30
16355;BME280;8287;51.644;8.494;2023-06-04T06:33:13;100926.09;;;15.01;60.41
16355;BME280;8287;51.644;8.494;2023-06-04T06:35:40;100928.28;;;15.07;59.62
16355;BME280;8287;51.644;8.494;2023-06-04T06:38:07;100935.78;;;15.22;58.31
16355;BME280;8287;51.644;8.494;2023-06-04T06:40:33;100936.34;;;15.36;57.19
16355;BME280;8287;51.644;8.494;2023-06-04T06:43:00;100942.09;;;15.55;55.85
16355;BME280;8287;51.644;8.494;2023-06-04T06:45:28;100937.06;;;15.54;56.83
16355;BME280;8287;51.644;8.494;2023-06-04T06:47:55;100950.03;;;15.72;57.35
16355;BME280;8287;51.644;8.494;2023-06-04T06:50:21;100947.59;;;15.88;56.37
16355;BME280;8287;51.644;8.494;2023-06-04T06:52:48;100952.22;;;15.99;56.60
16355;BME280;8287;51.644;8.494;2023-06-04T06:55:15;100947.88;;;16.15;56.13
16355;BME280;8287;51.644;8.494;2023-06-04T06:57:42;100950.91;;;16.26;55.67
16355;BME280;8287;51.644;8.494;2023-06-04T07:00:10;100951.28;;;16.45;54.85
16355;BME280;8287;51.644;8.494;2023-06-04T07:02:38;100953.69;;;16.58;53.74
16355;BME280;8287;51.644;8.494;2023-06-04T07:05:05;100955.91;;;16.77;52.06
16355;BME280;8287;51.644;8.494;2023-06-04T07:07:32;100955.78;;;16.85;52.19
16355;BME280;8287;51.644;8.494;2023-06-04T07:09:59;100952.19;;;17.01;52.59
16355;BME280;8287;51.644;8.494;2023-06-04T07:12:26;100953.50;;;17.07;49.57
16355;BME280;8287;51.644;8.494;2023-06-04T07:14:52;100949.31;;;17.18;50.13
16355;BME280;8287;51.644;8.494;2023-06-04T07:17:19;100943.28;;;17.33;51.28
16355;BME280;8287;51.644;8.494;2023-06-04T07:19:47;100948.13;;;17.64;51.74
16355;BME280;8287;51.644;8.494;2023-06-04T07:22:13;100954.63;;;17.75;49.64
16355;BME280;8287;51.644;8.494;2023-06-04T07:24:41;100954.59;;;17.63;48.46
16355;BME280;8287;51.644;8.494;2023-06-04T07:27:11;100956.38;;;17.95;50.24
16355;BME280;8287;51.644;8.494;2023-06-04T07:29:38;100954.44;;;18.19;50.70
16355;BME280;8287;51.644;8.494;2023-06-04T07:32:05;100957.00;;;18.40;51.91
16355;BME280;8287;51.644;8.494;2023-06-04T07:34:31;100945.88;;;18.53;51.07
16355;BME280;8287;51.644;8.494;2023-06-04T07:36:59;100944.69;;;18.66;49.97
16355;BME280;8287;51.644;8.494;2023-06-04T07:39:26;100947.59;;;18.89;48.99
16355;BME280;8287;51.644;8.494;2023-06-04T07:41:53;100947.09;;;18.99;48.93
16355;BME280;8287;51.644;8.494;2023-06-04T07:44:20;100951.25;;;19.12;47.94
16355;BME280;8287;51.644;8.494;2023-06-04T07:46:46;100954.16;;;19.34;47.87
16355;BME280;8287;51.644;8.494;2023-06-04T07:49:13;100954.25;;;19.38;47.01
16355;BME280;8287;51.644;8.494;2023-06-04T07:51:40;100949.47;;;19.47;45.88
16355;BME280;8287;51.644;8.494;2023-06-04T07:54:08;100943.75;;;19.48;45.93
16355;BME280;8287;51.644;8.494;2023-06-04T07:56:35;100953.38;;;19.65;47.05
16355;BME280;8287;51.644;8.494;2023-06-04T07:59:02;100946.44;;;19.79;45.58
16355;BME280;8287;51.644;8.494;2023-06-04T08:01:28;100955.94;;;19.92;45.89
16355;BME280;8287;51.644;8.494;2023-06-04T08:03:55;100953.03;;;20.16;46.81
16355;BME280;8287;51.644;8.494;2023-06-04T08:06:24;100945.38;;;20.18;45.18
16355;BME280;8287;51.644;8.494;2023-06-04T08:08:52;100952.69;;;20.37;46.84
16355;BME280;8287;51.644;8.494;2023-06-04T08:11:20;100945.88;;;20.24;43.47
16355;BME280;8287;51.644;8.494;2023-06-04T08:13:48;100945.25;;;20.49;44.89
16355;BME280;8287;51.644;8.494;2023-06-04T08:16:15;100944.16;;;20.72;44.26
16355;BME280;8287;51.644;8.494;2023-06-04T08:18:42;100941.44;;;20.88;43.94
16355;BME280;8287;51.644;8.494;2023-06-04T08:21:09;100940.00;;;21.16;43.66
16355;BME280;8287;51.644;8.494;2023-06-04T08:23:36;100946.28;;;21.24;44.46
16355;BME280;8287;51.644;8.494;2023-06-04T08:26:03;100939.09;;;21.31;43.76
16355;BME280;8287;51.644;8.494;2023-06-04T08:28:31;100944.66;;;21.42;44.31
16355;BME280;8287;51.644;8.494;2023-06-04T08:30:58;100946.09;;;21.58;43.93
16355;BME280;8287;51.644;8.494;2023-06-04T08:33:24;100954.28;;;21.65;43.90
16355;BME280;8287;51.644;8.494;2023-06-04T08:35:51;100954.66;;;21.41;43.65
16355;BME280;8287;51.644;8.494;2023-06-04T08:38:18;100956.53;;;21.37;41.72
16355;BME280;8287;51.644;8.494;2023-06-04T08:40:44;100956.75;;;21.74;42.65
16355;BME280;8287;51.644;8.494;2023-06-04T08:43:11;100946.84;;;21.81;43.52
16355;BME280;8287;51.644;8.494;2023-06-04T08:45:43;100956.91;;;22.10;43.00
16355;BME280;8287;51.644;8.494;2023-06-04T08:48:11;100948.97;;;22.24;41.37
16355;BME280;8287;51.644;8.494;2023-06-04T08:50:39;100956.00;;;22.32;42.93
16355;BME280;8287;51.644;8.494;2023-06-04T08:53:09;100956.63;;;22.48;42.37
16355;BME280;8287;51.644;8.494;2023-06-04T08:55:37;100959.72;;;22.50;41.67
16355;BME280;8287;51.644;8.494;2023-06-04T08:58:05;100958.41;;;22.37;41.58
16355;BME280;8287;51.644;8.494;2023-06-04T09:00:33;100954.00;;;22.55;41.70
16355;BME280;8287;51.644;8.494;2023-06-04T09:03:02;100956.47;;;22.67;40.03
16355;BME280;8287;51.644;8.494;2023-06-04T09:05:30;100952.25;;;22.70;41.87
16355;BME280;8287;51.644;8.494;2023-06-04T09:08:01;100956.31;;;22.53;39.96
16355;BME280;8287;51.644;8.494;2023-06-04T09:10:53;100959.59;;;22.69;38.91
16355;BME280;8287;51.644;8.494;2023-06-04T09:13:55;100960.06;;;22.78;40.52
16355;BME280;8287;51.644;8.494;2023-06-04T09:17:25;100953.44;;;22.72;39.04
16355;BME280;8287;51.644;8.494;2023-06-04T09:23:37;100956.25;;;23.19;38.67
16355;BME280;8287;51.644;8.494;2023-06-04T09:26:10;100959.38;;;23.25;36.15
16355;BME280;8287;51.644;8.494;2023-06-04T09:28:40;100959.13;;;23.00;37.32
16355;BME280;8287;51.644;8.494;2023-06-04T09:31:14;100954.75;;;23.25;37.83
16355;BME280;8287;51.644;8.494;2023-06-04T09:33:57;100957.41;;;23.18;38.03
16355;BME280;8287;51.644;8.494;2023-06-04T09:36:29;100955.59;;;23.33;35.51
16355;BME280;8287;51.644;8.494;2023-06-04T09:38:57;100950.41;;;22.77;33.72
16355;BME280;8287;51.644;8.494;2023-06-04T09:41:25;100951.00;;;22.60;33.11
16355;BME280;8287;51.644;8.494;2023-06-04T09:43:59;100950.19;;;22.96;32.81
16355;BME280;8287;51.644;8.494;2023-06-04T09:46:28;100941.28;;;22.92;35.40
16355;BME280;8287;51.644;8.494;2023-06-04T09:48:59;100957.28;;;22.71;32.61
16355;BME280;8287;51.644;8.494;2023-06-04T09:51:26;100945.94;;;22.95;32.57
16355;BME280;8287;51.644;8.494;2023-06-04T09:53:53;100950.38;;;22.74;30.90
16355;BME280;8287;51.644;8.494;2023-06-04T09:56:22;100944.47;;;23.05;31.14
16355;BME280;8287;51.644;8.494;2023-06-04T09:58:49;100951.59;;;23.20;35.05
16355;BME280;8287;51.644;8.494;2023-06-04T10:01:18;100946.38;;;23.01;32.25
16355;BME280;8287;51.644;8.494;2023-06-04T10:03:47;100941.84;;;23.12;33.47
16355;BME280;8287;51.644;8.494;2023-06-04T10:06:15;100948.03;;;23.52;34.40
16355;BME280;8287;51.644;8.494;2023-06-04T10:08:42;100944.50;;;23.48;31.52
16355;BME280;8287;51.644;8.494;2023-06-04T10:11:12;100944.84;;;23.40;32.20
16355;BME280;8287;51.644;8.494;2023-06-04T10:13:46;100941.09;;;23.58;33.11
16355;BME280;8287;51.644;8.494;2023-06-04T10:16:14;100933.56;;;23.34;30.61
16355;BME280;8287;51.644;8.494;2023-06-04T10:18:42;100946.00;;;23.42;31.17
16355;BME280;8287;51.644;8.494;2023-06-04T10:21:10;100955.09;;;23.71;33.20
16355;BME280;8287;51.644;8.494;2023-06-04T10:23:39;100939.38;;;23.87;31.21
16355;BME280;8287;51.644;8.494;2023-06-04T10:26:07;100931.75;;;24.06;32.11
16355;BME280;8287;51.644;8.494;2023-06-04T10:28:35;100944.47;;;23.45;30.15
16355;BME280;8287;51.644;8.494;2023-06-04T10:31:03;100940.69;;;23.53;32.30
16355;BME280;8287;51.644;8.494;2023-06-04T10:33:29;100929.38;;;23.91;32.94
16355;BME280;8287;51.644;8.494;2023-06-04T10:35:58;100931.34;;;24.01;33.09
16355;BME280;8287;51.644;8.494;2023-06-04T10:38:24;100943.31;;;23.46;30.50
16355;BME280;8287;51.644;8.494;2023-06-04T10:40:51;100939.41;;;23.36;30.69
16355;BME280;8287;51.644;8.494;2023-06-04T10:43:18;100948.13;;;23.70;32.13
16355;BME280;8287;51.644;8.494;2023-06-04T10:45:45;100936.38;;;23.99;32.58
16355;BME280;8287;51.644;8.494;2023-06-04T10:48:13;100939.44;;;23.94;31.32
16355;BME280;8287;51.644;8.494;2023-06-04T10:50:51;100935.97;;;24.00;32.05
16355;BME280;8287;51.644;8.494;2023-06-04T10:53:18;100929.16;;;24.27;32.03
16355;BME280;8287;51.644;8.494;2023-06-04T10:55:46;100938.38;;;24.12;32.43
16355;BME280;8287;51.644;8.494;2023-06-04T10:58:13;100932.16;;;24.08;31.01
16355;BME280;8287;51.644;8.494;2023-06-04T11:00:41;100933.88;;;23.73;31.97
16355;BME280;8287;51.644;8.494;2023-06-04T11:03:10;100932.38;;;23.82;30.36
16355;BME280;8287;51.644;8.494;2023-06-04T11:05:40;100931.00;;;24.09;29.96
16355;BME280;8287;51.644;8.494;2023-06-04T11:08:07;100944.28;;;23.71;28.83
16355;BME280;8287;51.644;8.494;2023-06-04T11:10:36;100940.41;;;23.68;31.62
16355;BME280;8287;51.644;8.494;2023-06-04T11:13:03;100930.16;;;23.98;29.00
16355;BME280;8287;51.644;8.494;2023-06-04T11:15:38;100944.28;;;23.74;29.58
16355;BME280;8287;51.644;8.494;2023-06-04T11:18:04;100929.47;;;24.15;30.23
16355;BME280;8287;51.644;8.494;2023-06-04T11:20:31;100918.75;;;24.39;31.50
16355;BME280;8287;51.644;8.494;2023-06-04T11:23:00;100920.06;;;24.77;31.71
16355;BME280;8287;51.644;8.494;2023-06-04T11:25:29;100919.69;;;25.03;33.23
16355;BME280;8287;51.644;8.494;2023-06-04T11:27:58;100916.59;;;24.90;29.75
16355;BME280;8287;51.644;8.494;2023-06-04T11:30:27;100918.47;;;24.62;29.86
16355;BME280;8287;51.644;8.494;2023-06-04T11:33:01;100911.53;;;25.13;28.22
16355;BME280;8287;51.644;8.494;2023-06-04T11:35:27;100913.91;;;25.25;27.04
16355;BME280;8287;51.644;8.494;2023-06-04T11:37:55;100907.94;;;24.53;28.50
16355;BME280;8287;51.644;8.494;2023-06-04T11:40:24;100916.03;;;24.32;31.24
16355;BME280;8287;51.644;8.494;2023-06-04T11:42:52;100917.47;;;24.16;29.06
16355;BME280;8287;51.644;8.494;2023-06-04T11:45:20;100916.53;;;24.73;33.70
16355;BME280;8287;51.644;8.494;2023-06-04T11:47:48;100909.25;;;25.19;31.65
16355;BME280;8287;51.644;8.494;2023-06-04T11:50:15;100909.19;;;25.75;31.93
16355;BME280;8287;51.644;8.494;2023-06-04T11:52:42;100914.59;;;25.99;32.06
16355;BME280;8287;51.644;8.494;2023-06-04T11:55:09;100904.91;;;25.95;31.20
16355;BME280;8287;51.644;8.494;2023-06-04T11:57:38;100906.28;;;26.34;27.91
16355;BME280;8287;51.644;8.494;2023-06-04T12:00:06;100905.53;;;26.27;29.26
16355;BME280;8287;51.644;8.494;2023-06-04T12:02:35;100907.63;;;25.98;31.67
16355;BME280;8287;51.644;8.494;2023-06-04T12:05:11;100910.59;;;26.25;29.37
16355;BME280;8287;51.644;8.494;2023-06-04T12:07:37;100909.69;;;26.56;30.34
16355;BME280;8287;51.644;8.494;2023-06-04T12:10:07;100903.28;;;26.15;32.28
16355;BME280;8287;51.644;8.494;2023-06-04T12:12:35;100903.34;;;25.87;28.02
16355;BME280;8287;51.644;8.494;2023-06-04T12:15:03;100897.00;;;26.25;29.33
16355;BME280;8287;51.644;8.494;2023-06-04T12:17:31;100905.81;;;26.53;27.40
16355;BME280;8287;51.644;8.494;2023-06-04T12:19:58;100896.44;;;26.65;28.23
16355;BME280;8287;51.644;8.494;2023-06-04T12:22:27;100895.63;;;26.71;28.42
16355;BME280;8287;51.644;8.494;2023-06-04T12:24:55;100892.75;;;26.96;27.37
16355;BME280;8287;51.644;8.494;2023-06-04T12:27:23;100890.94;;;26.75;29.45
16355;BME280;8287;51.644;8.494;2023-06-04T12:29:55;100894.53;;;26.62;27.98
16355;BME280;8287;51.644;8.494;2023-06-04T12:32:23;100896.72;;;26.81;30.02
16355;BME280;8287;51.644;8.494;2023-06-04T12:34:50;100900.78;;;26.52;28.20
16355;BME280;8287;51.644;8.494;2023-06-04T12:37:16;100899.22;;;26.51;26.92
16355;BME280;8287;51.644;8.494;2023-06-04T12:39:43;100897.38;;;26.27;29.36
16355;BME280;8287;51.644;8.494;2023-06-04T12:42:09;100891.88;;;26.41;29.41
16355;BME280;8287;51.644;8.494;2023-06-04T12:44:37;100891.09;;;26.44;31.13
16355;BME280;8287;51.644;8.494;2023-06-04T12:47:05;100887.72;;;26.87;29.27
16355;BME280;8287;51.644;8.494;2023-06-04T12:49:33;100891.06;;;26.51;29.64
16355;BME280;8287;51.644;8.494;2023-06-04T12:52:00;100887.69;;;26.94;30.40
16355;BME280;8287;51.644;8.494;2023-06-04T12:54:26;100888.44;;;27.46;29.82
16355;BME280;8287;51.644;8.494;2023-06-04T12:56:53;100888.59;;;26.74;28.69
16355;BME280;8287;51.644;8.494;2023-06-04T12:59:21;100898.47;;;26.47;27.46
16355;BME280;8287;51.644;8.494;2023-06-04T13:01:49;100898.06;;;27.10;30.67
16355;BME280;8287;51.644;8.494;2023-06-04T13:04:15;100892.94;;;27.63;28.76
16355;BME280;8287;51.644;8.494;2023-06-04T13:06:43;100884.41;;;27.98;28.78
16355;BME280;8287;51.644;8.494;2023-06-04T13:09:11;100884.94;;;28.45;25.27